sensor_id;sensor_type;location;lat;lon;timestamp;pressure;altitude;pressure_sealevel;temperature;humidity
3132;BME280;62090;52.330;9.104;2023-01-27T00:01:14;101773.00;;;4.14;100.00
3132;BME280;62090;52.330;9.104;2023-01-27T00:03:44;101789.47;;;4.09;100.00
3132;BME280;62090;52.330;9.104;2023-01-27T00:06:14;101794.63;;;4.11;100.00
3132;BME280;62090;52.330;9.104;2023-01-27T00:08:43;101802.69;;;4.18;100.00
3132;BME280;62090;52.330;9.104;2023-01-27T00:11:13;101807.38;;;4.25;100.00
3132;BME280;62090;52.330;9.104;2023-01-27T00:13:55;101789.53;;;4.22;100.00
3132;BME280;62090;52.330;9.104;2023-01-27T00:16:27;101783.72;;;4.37;100.00
3132;BME280;62090;52.330;9.104;2023-01-27T00:18:57;101793.25;;;4.41;100.00
3132;BME280;62090;52.330;9.104;2023-01-27T00:21:27;101744.66;;;4.18;100.00
3132;BME280;62090;52.330;9.104;2023-01-27T00:24:11;101801.03;;;4.44;100.00
3132;BME280;62090;52.330;9.104;2023-01-27T00:26:53;101769.06;;;4.31;100.00
3132;BME280;62090;52.330;9.104;2023-01-27T00:29:23;101771.78;;;4.34;100.00
3132;BME280;62090;52.330;9.104;2023-01-27T00:31:55;101776.28;;;4.38;100.00
3132;BME280;62090;52.330;9.104;2023-01-27T00:34:37;101793.53;;;4.45;100.00
3132;BME280;62090;52.330;9.104;2023-01-27T00:37:07;101794.22;;;4.43;100.00
3132;BME280;62090;52.330;9.104;2023-01-27T00:39:37;101760.91;;;4.22;100.00
3132;BME280;62090;52.330;9.104;2023-01-27T00:42:08;101790.69;;;4.28;100.00
3132;BME280;62090;52.330;9.104;2023-01-27T00:44:38;101763.59;;;4.12;100.00
3132;BME280;62090;52.330;9.104;2023-01-27T00:47:31;101794.75;;;4.25;100.00
3132;BME280;62090;52.330;9.104;2023-01-27T00:50:00;101790.19;;;4.20;100.00
3132;BME280;62090;52.330;9.104;2023-01-27T00:52:30;101780.19;;;4.21;100.00
3132;BME280;62090;52.330;9.104;2023-01-27T00:55:00;101780.19;;;4.21;100.00
3132;BME280;62090;52.330;9.104;2023-01-27T00:57:30;101798.91;;;4.25;100.00
3132;BME280;62090;52.330;9.104;2023-01-27T01:00:00;101796.88;;;4.19;100.00
3132;BME280;62090;52.330;9.104;2023-01-27T01:02:32;101746.22;;;3.92;100.00
3132;BME280;62090;52.330;9.104;2023-01-27T01:05:02;101802.31;;;4.25;100.00
3132;BME280;62090;52.330;9.104;2023-01-27T01:07:32;101784.84;;;4.15;100.00
3132;BME280;62090;52.330;9.104;2023-01-27T01:10:02;101806.72;;;4.28;100.00
3132;BME280;62090;52.330;9.104;2023-01-27T01:12:31;101805.03;;;4.29;100.00
3132;BME280;62090;52.330;9.104;2023-01-27T01:15:01;101775.50;;;4.14;100.00
3132;BME280;62090;52.330;9.104;2023-01-27T01:17:33;101789.41;;;4.21;100.00
3132;BME280;62090;52.330;9.104;2023-01-27T01:20:04;101806.22;;;4.34;100.00
3132;BME280;62090;52.330;9.104;2023-01-27T01:22:35;101777.25;;;4.15;100.00
3132;BME280;62090;52.330;9.104;2023-01-27T01:25:06;101812.25;;;4.36;100.00
3132;BME280;62090;52.330;9.104;2023-01-27T01:27:36;101802.16;;;4.36;100.00
3132;BME280;62090;52.330;9.104;2023-01-27T01:30:07;101792.53;;;4.30;100.00
3132;BME280;62090;52.330;9.104;2023-01-27T01:32:39;101747.16;;;4.05;100.00
3132;BME280;62090;52.330;9.104;2023-01-27T01:35:09;101811.88;;;4.43;100.00
3132;BME280;62090;52.330;9.104;2023-01-27T01:37:39;101803.34;;;4.41;100.00
3132;BME280;62090;52.330;9.104;2023-01-27T01:40:10;101816.47;;;4.48;100.00
3132;BME280;62090;52.330;9.104;2023-01-27T01:42:52;101817.94;;;4.58;100.00
3132;BME280;62090;52.330;9.104;2023-01-27T01:45:51;101795.00;;;4.42;100.00
3132;BME280;62090;52.330;9.104;2023-01-27T01:48:31;101804.31;;;4.43;100.00
3132;BME280;62090;52.330;9.104;2023-01-27T01:51:05;101765.81;;;4.20;100.00
3132;BME280;62090;52.330;9.104;2023-01-27T01:53:41;101814.25;;;4.53;100.00
3132;BME280;62090;52.330;9.104;2023-01-27T01:56:15;101804.41;;;4.44;100.00
3132;BME280;62090;52.330;9.104;2023-01-27T01:58:45;101793.13;;;4.39;100.00
3132;BME280;62090;52.330;9.104;2023-01-27T02:01:17;101822.59;;;4.52;100.00
3132;BME280;62090;52.330;9.104;2023-01-27T02:03:52;101813.94;;;4.61;100.00
3132;BME280;62090;52.330;9.104;2023-01-27T02:06:24;101824.53;;;4.56;100.00
3132;BME280;62090;52.330;9.104;2023-01-27T02:08:56;101807.25;;;4.49;100.00
3132;BME280;62090;52.330;9.104;2023-01-27T02:11:27;101798.28;;;4.41;100.00
3132;BME280;62090;52.330;9.104;2023-01-27T02:13:59;101820.25;;;4.55;100.00
3132;BME280;62090;52.330;9.104;2023-01-27T02:16:30;101812.50;;;4.52;100.00
3132;BME280;62090;52.330;9.104;2023-01-27T02:19:03;101775.56;;;4.28;100.00
3132;BME280;62090;52.330;9.104;2023-01-27T02:21:34;101807.78;;;4.45;100.00
3132;BME280;62090;52.330;9.104;2023-01-27T02:24:05;101804.63;;;4.47;100.00
3132;BME280;62090;52.330;9.104;2023-01-27T02:26:42;101772.06;;;4.25;100.00
3132;BME280;62090;52.330;9.104;2023-01-27T02:29:14;101762.84;;;4.26;100.00
3132;BME280;62090;52.330;9.104;2023-01-27T02:31:44;101824.94;;;4.62;100.00
3132;BME280;62090;52.330;9.104;2023-01-27T02:34:16;101825.63;;;4.59;100.00
3132;BME280;62090;52.330;9.104;2023-01-27T02:36:51;101790.53;;;4.38;100.00
3132;BME280;62090;52.330;9.104;2023-01-27T02:39:27;101808.22;;;4.51;100.00
3132;BME280;62090;52.330;9.104;2023-01-27T02:42:03;101808.31;;;4.52;100.00
3132;BME280;62090;52.330;9.104;2023-01-27T02:44:34;101808.97;;;4.50;100.00
3132;BME280;62090;52.330;9.104;2023-01-27T02:47:04;101813.84;;;4.47;100.00
3132;BME280;62090;52.330;9.104;2023-01-27T02:49:34;101795.16;;;4.32;100.00
3132;BME280;62090;52.330;9.104;2023-01-27T02:52:04;101798.66;;;4.34;100.00
3132;BME280;62090;52.330;9.104;2023-01-27T02:54:33;101792.84;;;4.35;100.00
3132;BME280;62090;52.330;9.104;2023-01-27T02:57:06;101804.72;;;4.49;100.00
3132;BME280;62090;52.330;9.104;2023-01-27T02:59:48;101819.94;;;4.50;100.00
3132;BME280;62090;52.330;9.104;2023-01-27T03:02:18;101814.81;;;4.49;100.00
3132;BME280;62090;52.330;9.104;2023-01-27T03:04:48;101837.16;;;4.56;100.00
3132;BME280;62090;52.330;9.104;2023-01-27T03:07:18;101828.91;;;4.58;100.00
3132;BME280;62090;52.330;9.104;2023-01-27T03:09:48;101831.75;;;4.63;100.00
3132;BME280;62090;52.330;9.104;2023-01-27T03:12:20;101838.72;;;4.67;100.00
3132;BME280;62090;52.330;9.104;2023-01-27T03:14:51;101829.78;;;4.59;100.00
3132;BME280;62090;52.330;9.104;2023-01-27T03:17:35;101819.41;;;4.54;100.00
3132;BME280;62090;52.330;9.104;2023-01-27T03:20:18;101808.22;;;4.51;100.00
3132;BME280;62090;52.330;9.104;2023-01-27T03:22:48;101833.38;;;4.62;100.00
3132;BME280;62090;52.330;9.104;2023-01-27T03:25:20;101815.88;;;4.52;100.00
3132;BME280;62090;52.330;9.104;2023-01-27T03:27:56;101822.03;;;4.69;100.00
3132;BME280;62090;52.330;9.104;2023-01-27T03:30:46;101830.75;;;4.61;100.00
3132;BME280;62090;52.330;9.104;2023-01-27T03:33:27;101841.13;;;4.65;100.00
3132;BME280;62090;52.330;9.104;2023-01-27T03:36:02;101838.06;;;4.70;100.00
3132;BME280;62090;52.330;9.104;2023-01-27T03:38:47;101839.03;;;4.72;100.00
3132;BME280;62090;52.330;9.104;2023-01-27T03:41:30;101841.34;;;4.68;100.00
3132;BME280;62090;52.330;9.104;2023-01-27T03:44:15;101828.84;;;4.70;100.00
3132;BME280;62090;52.330;9.104;2023-01-27T03:46:57;101809.50;;;4.57;100.00
3132;BME280;62090;52.330;9.104;2023-01-27T03:49:27;101820.75;;;4.62;100.00
3132;BME280;62090;52.330;9.104;2023-01-27T03:51:57;101842.44;;;4.72;100.00
3132;BME280;62090;52.330;9.104;2023-01-27T03:54:26;101817.34;;;4.62;100.00
3132;BME280;62090;52.330;9.104;2023-01-27T03:56:56;101837.19;;;4.69;100.00
3132;BME280;62090;52.330;9.104;2023-01-27T03:59:35;101845.72;;;4.71;100.00
3132;BME280;62090;52.330;9.104;2023-01-27T04:02:05;101835.72;;;4.59;100.00
3132;BME280;62090;52.330;9.104;2023-01-27T04:04:47;101842.72;;;4.63;100.00
3132;BME280;62090;52.330;9.104;2023-01-27T04:07:33;101844.34;;;4.63;100.00
3132;BME280;62090;52.330;9.104;2023-01-27T04:10:04;101823.47;;;4.52;100.00
3132;BME280;62090;52.330;9.104;2023-01-27T04:12:34;101838.94;;;4.70;100.00
3132;BME280;62090;52.330;9.104;2023-01-27T04:15:05;101858.75;;;4.77;100.00
3132;BME280;62090;52.330;9.104;2023-01-27T04:17:35;101850.00;;;4.72;100.00
3132;BME280;62090;52.330;9.104;2023-01-27T04:20:08;101854.28;;;4.73;100.00
3132;BME280;62090;52.330;9.104;2023-01-27T04:22:38;101843.19;;;4.58;100.00
3132;BME280;62090;52.330;9.104;2023-01-27T04:25:08;101826.28;;;4.57;100.00
3132;BME280;62090;52.330;9.104;2023-01-27T04:27:39;101846.31;;;4.67;100.00
3132;BME280;62090;52.330;9.104;2023-01-27T04:30:12;101810.66;;;4.49;100.00
3132;BME280;62090;52.330;9.104;2023-01-27T04:32:42;101858.44;;;4.73;100.00
3132;BME280;62090;52.330;9.104;2023-01-27T04:35:12;101842.59;;;4.62;100.00
3132;BME280;62090;52.330;9.104;2023-01-27T04:37:42;101867.09;;;4.76;100.00
3132;BME280;62090;52.330;9.104;2023-01-27T04:40:12;101835.31;;;4.53;100.00
3132;BME280;62090;52.330;9.104;2023-01-27T04:42:42;101867.91;;;4.75;100.00
3132;BME280;62090;52.330;9.104;2023-01-27T04:45:16;101853.69;;;4.64;100.00
3132;BME280;62090;52.330;9.104;2023-01-27T04:47:45;101866.31;;;4.64;100.00
3132;BME280;62090;52.330;9.104;2023-01-27T04:50:16;101869.25;;;4.70;100.00
3132;BME280;62090;52.330;9.104;2023-01-27T04:52:45;101873.91;;;4.77;100.00
3132;BME280;62090;52.330;9.104;2023-01-27T04:55:16;101882.47;;;4.79;100.00
3132;BME280;62090;52.330;9.104;2023-01-27T04:57:46;101874.19;;;4.68;100.00
3132;BME280;62090;52.330;9.104;2023-01-27T05:00:19;101886.81;;;4.82;100.00
3132;BME280;62090;52.330;9.104;2023-01-27T05:02:49;101856.94;;;4.50;100.00
3132;BME280;62090;52.330;9.104;2023-01-27T05:05:19;101871.06;;;4.59;100.00
3132;BME280;62090;52.330;9.104;2023-01-27T05:07:48;101883.41;;;4.68;100.00
3132;BME280;62090;52.330;9.104;2023-01-27T05:10:18;101874.94;;;4.67;100.00
3132;BME280;62090;52.330;9.104;2023-01-27T05:12:48;101864.38;;;4.60;100.00
3132;BME280;62090;52.330;9.104;2023-01-27T05:15:20;101870.00;;;4.69;100.00
3132;BME280;62090;52.330;9.104;2023-01-27T05:17:50;101883.69;;;4.73;100.00
3132;BME280;62090;52.330;9.104;2023-01-27T05:20:20;101897.78;;;4.69;100.00
3132;BME280;62090;52.330;9.104;2023-01-27T05:22:50;101903.25;;;4.75;100.00
3132;BME280;62090;52.330;9.104;2023-01-27T05:25:41;101906.66;;;4.76;100.00
3132;BME280;62090;52.330;9.104;2023-01-27T05:28:11;101905.06;;;4.78;100.00
3132;BME280;62090;52.330;9.104;2023-01-27T05:30:43;101910.53;;;4.84;100.00
3132;BME280;62090;52.330;9.104;2023-01-27T05:33:14;101858.69;;;4.51;100.00
3132;BME280;62090;52.330;9.104;2023-01-27T05:35:43;101896.13;;;4.70;100.00
3132;BME280;62090;52.330;9.104;2023-01-27T05:38:13;101849.34;;;4.50;100.00
3132;BME280;62090;52.330;9.104;2023-01-27T05:40:42;101910.22;;;4.79;100.00
3132;BME280;62090;52.330;9.104;2023-01-27T05:43:12;101917.94;;;4.81;100.00
3132;BME280;62090;52.330;9.104;2023-01-27T05:45:44;101918.88;;;4.83;100.00
3132;BME280;62090;52.330;9.104;2023-01-27T05:48:14;101909.06;;;4.74;100.00
3132;BME280;62090;52.330;9.104;2023-01-27T05:50:53;101920.94;;;4.88;100.00
3132;BME280;62090;52.330;9.104;2023-01-27T05:53:23;101910.91;;;4.77;100.00
3132;BME280;62090;52.330;9.104;2023-01-27T05:55:53;101934.50;;;4.77;100.00
3132;BME280;62090;52.330;9.104;2023-01-27T05:58:23;101912.06;;;4.68;100.00
3132;BME280;62090;52.330;9.104;2023-01-27T06:00:56;101922.16;;;4.82;100.00
3132;BME280;62090;52.330;9.104;2023-01-27T06:03:34;101935.69;;;4.82;100.00
3132;BME280;62090;52.330;9.104;2023-01-27T06:06:05;101913.00;;;4.71;100.00
3132;BME280;62090;52.330;9.104;2023-01-27T06:08:36;101939.38;;;4.87;100.00
3132;BME280;62090;52.330;9.104;2023-01-27T06:11:07;101930.94;;;4.87;100.00
3132;BME280;62090;52.330;9.104;2023-01-27T06:13:37;101912.34;;;4.73;100.00
3132;BME280;62090;52.330;9.104;2023-01-27T06:16:11;101939.78;;;4.93;100.00
3132;BME280;62090;52.330;9.104;2023-01-27T06:18:43;101944.44;;;4.87;100.00
3132;BME280;62090;52.330;9.104;2023-01-27T06:21:14;101910.47;;;4.71;100.00
3132;BME280;62090;52.330;9.104;2023-01-27T06:23:44;101910.13;;;4.78;100.00
3132;BME280;62090;52.330;9.104;2023-01-27T06:26:15;101941.75;;;4.97;100.00
3132;BME280;62090;52.330;9.104;2023-01-27T06:28:46;101944.66;;;5.03;100.00
3132;BME280;62090;52.330;9.104;2023-01-27T06:31:20;101935.44;;;5.04;100.00
3132;BME280;62090;52.330;9.104;2023-01-27T06:33:50;101931.84;;;5.00;100.00
3132;BME280;62090;52.330;9.104;2023-01-27T06:36:21;101946.66;;;5.07;100.00
3132;BME280;62090;52.330;9.104;2023-01-27T06:38:50;101900.59;;;4.74;100.00
3132;BME280;62090;52.330;9.104;2023-01-27T06:41:20;101934.31;;;4.87;100.00
3132;BME280;62090;52.330;9.104;2023-01-27T06:43:50;101947.38;;;4.93;100.00
3132;BME280;62090;52.330;9.104;2023-01-27T06:46:23;101959.63;;;5.00;100.00
3132;BME280;62090;52.330;9.104;2023-01-27T06:48:52;101943.09;;;4.92;100.00
3132;BME280;62090;52.330;9.104;2023-01-27T06:51:22;101956.13;;;4.98;100.00
3132;BME280;62090;52.330;9.104;2023-01-27T06:53:52;101946.53;;;4.81;100.00
3132;BME280;62090;52.330;9.104;2023-01-27T06:56:21;101969.44;;;4.96;100.00
3132;BME280;62090;52.330;9.104;2023-01-27T06:58:51;101933.06;;;4.81;100.00
3132;BME280;62090;52.330;9.104;2023-01-27T07:01:23;101954.00;;;4.91;100.00
3132;BME280;62090;52.330;9.104;2023-01-27T07:03:54;101966.53;;;5.03;100.00
3132;BME280;62090;52.330;9.104;2023-01-27T07:06:23;101960.47;;;4.88;100.00
3132;BME280;62090;52.330;9.104;2023-01-27T07:08:53;101983.66;;;5.07;100.00
3132;BME280;62090;52.330;9.104;2023-01-27T07:11:23;101987.63;;;5.03;100.00
3132;BME280;62090;52.330;9.104;2023-01-27T07:13:53;101985.84;;;5.02;100.00
3132;BME280;62090;52.330;9.104;2023-01-27T07:16:25;101971.44;;;4.88;100.00
3132;BME280;62090;52.330;9.104;2023-01-27T07:18:55;101984.03;;;5.00;100.00
3132;BME280;62090;52.330;9.104;2023-01-27T07:21:24;101982.94;;;4.96;100.00
3132;BME280;62090;52.330;9.104;2023-01-27T07:23:54;101973.63;;;4.95;100.00
3132;BME280;62090;52.330;9.104;2023-01-27T07:26:24;101974.28;;;4.93;100.00
3132;BME280;62090;52.330;9.104;2023-01-27T07:28:54;101988.00;;;4.96;100.00
3132;BME280;62090;52.330;9.104;2023-01-27T07:31:27;101949.19;;;4.83;100.00
3132;BME280;62090;52.330;9.104;2023-01-27T07:33:57;101997.72;;;5.03;100.00
3132;BME280;62090;52.330;9.104;2023-01-27T07:36:26;101996.53;;;4.98;100.00
3132;BME280;62090;52.330;9.104;2023-01-27T07:38:56;102012.09;;;5.04;100.00
3132;BME280;62090;52.330;9.104;2023-01-27T07:41:25;102012.88;;;5.03;100.00
3132;BME280;62090;52.330;9.104;2023-01-27T07:43:55;102022.97;;;5.03;100.00
3132;BME280;62090;52.330;9.104;2023-01-27T07:46:28;102020.38;;;5.02;100.00
3132;BME280;62090;52.330;9.104;2023-01-27T07:48:58;102026.84;;;4.98;100.00
3132;BME280;62090;52.330;9.104;2023-01-27T07:51:27;102034.84;;;5.04;100.00
3132;BME280;62090;52.330;9.104;2023-01-27T07:53:57;101998.03;;;4.83;100.00
3132;BME280;62090;52.330;9.104;2023-01-27T07:56:27;102040.81;;;4.93;100.00
3132;BME280;62090;52.330;9.104;2023-01-27T07:58:58;102038.88;;;4.89;100.00
3132;BME280;62090;52.330;9.104;2023-01-27T08:01:30;102028.69;;;4.76;100.00
3132;BME280;62090;52.330;9.104;2023-01-27T08:04:00;102057.88;;;4.84;100.00
3132;BME280;62090;52.330;9.104;2023-01-27T08:06:29;102054.59;;;4.85;100.00
3132;BME280;62090;52.330;9.104;2023-01-27T08:08:59;102055.34;;;4.84;100.00
3132;BME280;62090;52.330;9.104;2023-01-27T08:11:29;102059.94;;;4.90;100.00
3132;BME280;62090;52.330;9.104;2023-01-27T08:13:58;102044.84;;;4.78;100.00
3132;BME280;62090;52.330;9.104;2023-01-27T08:16:31;102070.09;;;4.78;100.00
3132;BME280;62090;52.330;9.104;2023-01-27T08:19:00;102055.38;;;4.73;100.00
3132;BME280;62090;52.330;9.104;2023-01-27T08:21:49;102050.78;;;4.67;100.00
3132;BME280;62090;52.330;9.104;2023-01-27T08:24:18;102058.16;;;4.64;100.00
3132;BME280;62090;52.330;9.104;2023-01-27T08:26:48;102064.84;;;4.75;100.00
3132;BME280;62090;52.330;9.104;2023-01-27T08:29:18;102069.47;;;4.69;100.00
3132;BME280;62090;52.330;9.104;2023-01-27T08:31:50;102072.06;;;4.71;100.00
3132;BME280;62090;52.330;9.104;2023-01-27T08:34:20;102078.22;;;4.74;100.00
3132;BME280;62090;52.330;9.104;2023-01-27T08:36:49;102085.78;;;4.86;100.00
3132;BME280;62090;52.330;9.104;2023-01-27T08:39:19;102086.31;;;4.82;100.00
3132;BME280;62090;52.330;9.104;2023-01-27T08:41:49;102092.94;;;4.80;100.00
3132;BME280;62090;52.330;9.104;2023-01-27T08:44:19;102093.16;;;4.71;100.00
3132;BME280;62090;52.330;9.104;2023-01-27T08:46:53;102074.53;;;4.57;100.00
3132;BME280;62090;52.330;9.104;2023-01-27T08:49:23;102088.78;;;4.68;100.00
3132;BME280;62090;52.330;9.104;2023-01-27T08:51:53;102107.41;;;4.71;100.00
3132;BME280;62090;52.330;9.104;2023-01-27T08:54:22;102108.97;;;4.68;100.00
3132;BME280;62090;52.330;9.104;2023-01-27T08:56:52;102109.28;;;4.73;100.00
3132;BME280;62090;52.330;9.104;2023-01-27T08:59:22;102108.97;;;4.80;100.00
3132;BME280;62090;52.330;9.104;2023-01-27T09:01:54;102071.69;;;4.53;100.00
3132;BME280;62090;52.330;9.104;2023-01-27T09:04:24;102098.00;;;4.68;100.00
3132;BME280;62090;52.330;9.104;2023-01-27T09:06:55;102110.28;;;4.75;100.00
3132;BME280;62090;52.330;9.104;2023-01-27T09:09:24;102096.66;;;4.73;100.00
3132;BME280;62090;52.330;9.104;2023-01-27T09:11:54;102123.22;;;4.80;100.00
3132;BME280;62090;52.330;9.104;2023-01-27T09:14:26;102108.84;;;4.79;100.00
3132;BME280;62090;52.330;9.104;2023-01-27T09:16:59;102125.38;;;4.87;100.00
3132;BME280;62090;52.330;9.104;2023-01-27T09:19:28;102124.31;;;4.83;100.00
3132;BME280;62090;52.330;9.104;2023-01-27T09:21:58;102101.72;;;4.73;100.00
3132;BME280;62090;52.330;9.104;2023-01-27T09:24:28;102132.75;;;4.95;100.00
3132;BME280;62090;52.330;9.104;2023-01-27T09:26:57;102137.03;;;4.96;100.00
3132;BME280;62090;52.330;9.104;2023-01-27T09:29:27;102142.28;;;4.99;100.00
3132;BME280;62090;52.330;9.104;2023-01-27T09:32:00;102139.94;;;5.02;100.00
3132;BME280;62090;52.330;9.104;2023-01-27T09:34:30;102135.56;;;5.00;100.00
3132;BME280;62090;52.330;9.104;2023-01-27T09:37:03;102136.44;;;5.12;100.00
3132;BME280;62090;52.330;9.104;2023-01-27T09:39:35;102121.66;;;4.82;100.00
3132;BME280;62090;52.330;9.104;2023-01-27T09:45:33;102108.38;;;4.84;100.00
3132;BME280;62090;52.330;9.104;2023-01-27T09:48:18;102070.09;;;4.66;100.00
3132;BME280;62090;52.330;9.104;2023-01-27T09:50:54;102125.16;;;4.95;100.00
3132;BME280;62090;52.330;9.104;2023-01-27T09:53:51;102131.06;;;5.07;100.00
3132;BME280;62090;52.330;9.104;2023-01-27T09:56:35;102131.69;;;5.17;100.00
3132;BME280;62090;52.330;9.104;2023-01-27T09:59:19;102115.41;;;5.13;100.00
3132;BME280;62090;52.330;9.104;2023-01-27T10:01:58;102116.09;;;5.10;100.00
3132;BME280;62090;52.330;9.104;2023-01-27T10:04:45;102115.69;;;5.04;100.00
3132;BME280;62090;52.330;9.104;2023-01-27T10:07:29;102091.75;;;4.99;100.00
3132;BME280;62090;52.330;9.104;2023-01-27T10:13:05;102090.72;;;5.09;100.00
3132;BME280;62090;52.330;9.104;2023-01-27T10:15:48;102109.13;;;5.69;100.00
3132;BME280;62090;52.330;9.104;2023-01-27T10:18:34;102119.59;;;5.62;100.00
3132;BME280;62090;52.330;9.104;2023-01-27T10:21:18;102002.09;;;4.81;100.00
3132;BME280;62090;52.330;9.104;2023-01-27T10:23:56;102058.41;;;5.17;100.00
3132;BME280;62090;52.330;9.104;2023-01-27T10:26:32;102115.94;;;5.45;100.00
3132;BME280;62090;52.330;9.104;2023-01-27T10:29:08;102125.16;;;5.45;100.00
3132;BME280;62090;52.330;9.104;2023-01-27T10:31:43;102131.56;;;5.40;100.00
3132;BME280;62090;52.330;9.104;2023-01-27T10:34:25;102129.84;;;5.39;100.00
3132;BME280;62090;52.330;9.104;2023-01-27T10:37:06;102131.19;;;5.34;100.00
3132;BME280;62090;52.330;9.104;2023-01-27T10:39:43;102138.66;;;5.32;100.00
3132;BME280;62090;52.330;9.104;2023-01-27T10:42:23;102141.19;;;5.32;100.00
3132;BME280;62090;52.330;9.104;2023-01-27T10:45:09;102140.97;;;5.29;100.00
3132;BME280;62090;52.330;9.104;2023-01-27T10:47:51;102133.16;;;5.01;100.00
3132;BME280;62090;52.330;9.104;2023-01-27T10:50:28;102143.31;;;5.15;100.00
3132;BME280;62090;52.330;9.104;2023-01-27T10:53:07;102131.88;;;5.20;100.00
3132;BME280;62090;52.330;9.104;2023-01-27T10:55:42;102094.25;;;5.11;100.00
3132;BME280;62090;52.330;9.104;2023-01-27T10:58:17;102140.16;;;5.42;100.00
3132;BME280;62090;52.330;9.104;2023-01-27T11:00:53;102151.59;;;5.37;100.00
3132;BME280;62090;52.330;9.104;2023-01-27T11:03:46;102131.41;;;5.25;100.00
3132;BME280;62090;52.330;9.104;2023-01-27T11:06:21;102145.13;;;5.29;100.00
3132;BME280;62090;52.330;9.104;2023-01-27T11:09:00;102148.16;;;5.23;100.00
3132;BME280;62090;52.330;9.104;2023-01-27T11:11:34;102135.28;;;5.20;100.00
3132;BME280;62090;52.330;9.104;2023-01-27T11:14:25;102132.31;;;5.26;100.00
3132;BME280;62090;52.330;9.104;2023-01-27T11:17:00;102134.97;;;5.16;100.00
3132;BME280;62090;52.330;9.104;2023-01-27T11:19:37;102130.66;;;5.26;100.00
3132;BME280;62090;52.330;9.104;2023-01-27T11:22:16;102109.72;;;5.16;100.00
3132;BME280;62090;52.330;9.104;2023-01-27T11:24:54;102121.78;;;5.20;100.00
3132;BME280;62090;52.330;9.104;2023-01-27T11:27:35;102115.41;;;5.13;100.00
3132;BME280;62090;52.330;9.104;2023-01-27T11:30:14;102136.94;;;5.20;100.00
3132;BME280;62090;52.330;9.104;2023-01-27T11:32:53;102119.50;;;5.11;100.00
3132;BME280;62090;52.330;9.104;2023-01-27T11:35:25;102130.34;;;5.22;100.00
3132;BME280;62090;52.330;9.104;2023-01-27T11:37:55;102142.59;;;5.29;100.00
3132;BME280;62090;52.330;9.104;2023-01-27T11:40:44;102137.44;;;5.39;100.00
3132;BME280;62090;52.330;9.104;2023-01-27T11:43:19;102130.91;;;5.42;100.00
3132;BME280;62090;52.330;9.104;2023-01-27T11:45:51;102110.16;;;5.35;100.00
3132;BME280;62090;52.330;9.104;2023-01-27T11:48:25;102121.13;;;5.22;100.00
3132;BME280;62090;52.330;9.104;2023-01-27T11:51:02;102115.34;;;5.12;100.00
3132;BME280;62090;52.330;9.104;2023-01-27T11:53:34;102119.56;;;5.24;100.00
3132;BME280;62090;52.330;9.104;2023-01-27T11:56:15;102122.63;;;5.32;100.00
3132;BME280;62090;52.330;9.104;2023-01-27T11:58:51;102120.25;;;5.22;100.00
3132;BME280;62090;52.330;9.104;2023-01-27T12:01:42;102133.22;;;5.15;100.00
3132;BME280;62090;52.330;9.104;2023-01-27T12:04:19;102119.66;;;5.01;100.00
3132;BME280;62090;52.330;9.104;2023-01-27T12:06:53;102122.22;;;5.14;100.00
3132;BME280;62090;52.330;9.104;2023-01-27T12:09:33;102129.47;;;5.21;100.00
3132;BME280;62090;52.330;9.104;2023-01-27T12:12:20;102119.63;;;5.13;100.00
3132;BME280;62090;52.330;9.104;2023-01-27T12:14:52;102109.19;;;5.08;100.00
3132;BME280;62090;52.330;9.104;2023-01-27T12:17:27;102123.69;;;5.10;100.00
3132;BME280;62090;52.330;9.104;2023-01-27T12:20:01;102106.66;;;5.08;100.00
3132;BME280;62090;52.330;9.104;2023-01-27T12:22:36;102122.47;;;5.17;100.00
3132;BME280;62090;52.330;9.104;2023-01-27T12:25:23;102118.19;;;5.16;100.00
3132;BME280;62090;52.330;9.104;2023-01-27T12:27:58;102111.25;;;5.14;100.00
3132;BME280;62090;52.330;9.104;2023-01-27T12:30:32;102113.47;;;5.09;100.00
3132;BME280;62090;52.330;9.104;2023-01-27T12:33:11;102118.97;;;5.03;100.00
3132;BME280;62090;52.330;9.104;2023-01-27T12:35:47;102104.03;;;5.06;100.00
3132;BME280;62090;52.330;9.104;2023-01-27T12:38:20;102105.81;;;5.07;100.00
3132;BME280;62090;52.330;9.104;2023-01-27T12:40:56;102102.44;;;4.95;100.00
3132;BME280;62090;52.330;9.104;2023-01-27T12:43:29;102118.19;;;5.16;100.00
3132;BME280;62090;52.330;9.104;2023-01-27T12:46:08;102039.59;;;4.75;100.00
3132;BME280;62090;52.330;9.104;2023-01-27T12:48:46;102086.13;;;5.03;100.00
3132;BME280;62090;52.330;9.104;2023-01-27T12:51:20;102115.34;;;5.12;100.00
3132;BME280;62090;52.330;9.104;2023-01-27T12:53:50;102100.78;;;4.96;100.00
3132;BME280;62090;52.330;9.104;2023-01-27T12:56:42;102115.94;;;4.96;100.00
3132;BME280;62090;52.330;9.104;2023-01-27T12:59:13;102106.63;;;4.83;100.00
3132;BME280;62090;52.330;9.104;2023-01-27T13:01:56;102116.81;;;4.96;100.00
3132;BME280;62090;52.330;9.104;2023-01-27T13:04:27;102084.03;;;4.73;100.00
3132;BME280;62090;52.330;9.104;2023-01-27T13:07:04;102096.69;;;4.61;100.00
3132;BME280;62090;52.330;9.104;2023-01-27T13:09:36;102118.91;;;4.90;100.00
3132;BME280;62090;52.330;9.104;2023-01-27T13:12:15;102118.69;;;4.87;100.00
3132;BME280;62090;52.330;9.104;2023-01-27T13:14:49;102111.13;;;4.87;100.00
3132;BME280;62090;52.330;9.104;2023-01-27T13:17:28;102119.13;;;4.93;100.00
3132;BME280;62090;52.330;9.104;2023-01-27T13:20:02;102117.16;;;4.89;100.00
3132;BME280;62090;52.330;9.104;2023-01-27T13:22:40;102102.25;;;4.81;100.00
3132;BME280;62090;52.330;9.104;2023-01-27T13:25:17;102117.28;;;4.79;100.00
3132;BME280;62090;52.330;9.104;2023-01-27T13:27:54;102123.88;;;4.77;100.00
3132;BME280;62090;52.330;9.104;2023-01-27T13:30:29;102084.94;;;4.62;100.00
3132;BME280;62090;52.330;9.104;2023-01-27T13:33:12;102120.13;;;4.84;100.00
3132;BME280;62090;52.330;9.104;2023-01-27T13:35:54;102117.03;;;4.88;100.00
3132;BME280;62090;52.330;9.104;2023-01-27T13:38:33;102124.16;;;4.93;100.00
3132;BME280;62090;52.330;9.104;2023-01-27T13:41:13;102085.44;;;4.81;100.00